createdAt,value
2019-01-18T21:59:23.630Z,78.35
2019-01-18T22:01:58.069Z,78.10
2019-01-18T22:04:40.576Z,78.00
2019-01-18T22:07:30.018Z,78.07
2019-01-18T22:10:26.822Z,78.75
2019-01-18T22:12:58.430Z,78.58
2019-01-18T22:15:35.604Z,78.38
2019-01-18T22:18:25.059Z,78.44
2019-01-18T22:21:15.824Z,78.44
2019-01-18T22:23:47.359Z,78.54
2019-01-18T22:26:33.584Z,78.43
2019-01-18T22:29:23.140Z,78.04
2019-01-18T22:32:25.016Z,78.07
2019-01-18T22:35:08.114Z,77.97
2019-01-18T22:37:58.869Z,77.97
2019-01-18T22:40:52.563Z,77.90
2019-01-18T22:43:40.305Z,77.92
2019-01-18T22:46:28.233Z,77.80
2019-01-18T22:49:11.485Z,77.68
2019-01-18T22:51:59.543Z,77.73
2019-01-18T22:54:39.539Z,77.93
2019-01-18T22:57:13.934Z,77.82
2019-01-18T22:59:54.813Z,77.64
2019-01-18T23:02:26.415Z,77.79
2019-01-18T23:05:14.603Z,77.69
2019-01-18T23:08:08.401Z,77.63
2019-01-18T23:10:57.916Z,77.54
2019-01-18T23:13:44.008Z,77.67
2019-01-18T23:16:18.371Z,76.91
2019-01-18T23:18:52.632Z,77.10
2019-01-18T23:21:35.777Z,77.09
2019-01-18T23:27:19.154Z,77.25
2019-01-18T23:29:50.762Z,76.83
2019-01-18T23:32:25.180Z,77.10
2019-01-18T23:35:02.931Z,77.11
2019-01-18T23:37:35.544Z,77.19
2019-01-18T23:40:40.019Z,77.25
2019-01-18T23:43:29.681Z,77.51
2019-01-18T23:46:13.359Z,77.49
2019-01-18T23:48:57.963Z,77.53
2019-01-18T23:51:41.487Z,77.66
2019-01-18T23:54:18.686Z,77.59
2019-01-18T23:57:13.760Z,77.90
2019-01-18T23:59:45.326Z,77.86
